Terminal Aerodrome Forecast
Issued by NWS

Current Version | Previous Version | Text Only | Print | Product List | Glossary Off
Versions: 1 2 3 4 5 6 7 8 9 10 11 12 13 14 15 16 17 18

000
FTUS41 KILN 090544
TAFLUK
TAF
KLUK 090544Z 0906/1006 20004KT P6SM FEW250
     FM091500 21008KT P6SM VCSH OVC080
     FM091700 24010KT 3SM -SN OVC025
     FM091900 25010G18KT P6SM -SHSN OVC018
      TEMPO 0921/1001 2SM -SHSN
     FM100100 29012G20KT P6SM BKN025=

USA.gov is the U.S. government's official web portal to all federal, state and local government web resources and services.